Time;durP1;ratioP1;P1;durP2;ratioP2;P2;SDS_P1;SDS_P2;PMS_P1;PMS_P2;Temp;Humidity;BMP_temperature;BMP_pressure;BME280_temperature;BME280_humidity;BME280_pressure;Samples;Min_cycle;Max_cycle;Signal;HPM_P1;HPM_P2
2022/11/05 04:37:56;;;;;;;8.48;4.97;;;;;;;8.52;87.62;99100.63;4522150;27;20228;-75
2022/11/05 04:40:24;;;;;;;7.28;5.65;;;;;;;8.12;90.68;99090.06;4295678;33;34416;-78
2022/11/05 04:42:53;;;;;;;8.05;5.50;;;;;;;8.16;90.41;99097.44;4300014;33;34837;-74
2022/11/05 04:45:22;;;;;;;7.60;5.35;;;;;;;8.76;87.36;99105.78;4313751;33;34292;-73
2022/11/05 04:47:50;;;;;;;9.40;5.40;;;;;;;8.54;87.89;99103.91;4319422;33;33967;-81
2022/11/05 04:50:17;;;;;;;7.18;5.35;;;;;;;8.61;87.36;99099.13;4318952;33;33363;-81
2022/11/05 04:52:44;;;;;;;7.43;5.40;;;;;;;8.59;87.11;99101.25;4306296;33;33743;-72
2022/11/05 04:55:12;;;;;;;7.20;5.20;;;;;;;8.39;87.21;99118.00;4319212;33;34327;-79
2022/11/05 04:57:39;;;;;;;9.10;5.75;;;;;;;8.35;88.89;99107.94;4319823;33;34042;-76
2022/11/05 05:00:09;;;;;;;6.47;4.87;;;;;;;8.73;86.69;99111.72;4318475;33;33817;-86
2022/11/05 05:02:36;;;;;;;6.65;4.90;;;;;;;8.31;89.07;99107.63;4291190;33;34609;-72
2022/11/05 05:05:04;;;;;;;7.70;5.22;;;;;;;8.39;88.52;99101.78;4304605;33;34163;-82
2022/11/05 05:07:32;;;;;;;6.82;5.15;;;;;;;8.31;89.28;99102.22;4304632;33;34457;-84
2022/11/05 05:10:01;;;;;;;7.37;5.55;;;;;;;8.35;88.64;99094.44;4303655;33;33338;-82
2022/11/05 05:12:28;;;;;;;8.52;5.50;;;;;;;7.91;90.54;99092.47;4291742;33;33953;-81
2022/11/05 05:14:56;;;;;;;7.93;5.25;;;;;;;8.52;88.11;99095.22;4312280;33;34225;-82
2022/11/05 05:17:24;;;;;;;7.75;5.12;;;;;;;8.38;88.82;99091.22;4318300;33;33934;-79
2022/11/05 05:22:37;;;;;;;6.35;4.50;;;;;;;8.45;87.20;99099.19;4319043;33;33825;-81
2022/11/05 05:25:05;;;;;;;6.50;4.60;;;;;;;8.31;89.00;99113.03;4319578;33;33657;-81
2022/11/05 05:27:32;;;;;;;6.43;4.60;;;;;;;8.14;89.04;99109.53;4306226;33;34281;-72
2022/11/05 05:30:00;;;;;;;5.57;4.05;;;;;;;8.20;89.26;99116.66;4315997;33;34525;-74
2022/11/05 05:32:27;;;;;;;6.85;4.75;;;;;;;8.09;90.67;99117.59;4304849;33;33950;-82
2022/11/05 05:34:54;;;;;;;6.82;4.78;;;;;;;8.12;88.87;99126.03;4319237;33;34942;-86
2022/11/05 05:37:22;;;;;;;5.62;4.07;;;;;;;8.11;89.05;99127.06;4317329;33;34769;-78
2022/11/05 05:39:49;;;;;;;6.43;4.57;;;;;;;8.40;88.71;99125.09;4317665;33;34302;-87
2022/11/05 05:42:17;;;;;;;5.95;4.10;;;;;;;8.60;86.86;99126.44;4310370;33;33826;-90
2022/11/05 05:44:44;;;;;;;6.32;4.45;;;;;;;7.99;90.10;99126.34;4317561;33;34276;-84
2022/11/05 05:47:12;;;;;;;6.12;4.10;;;;;;;8.46;87.72;99128.66;4318341;33;33985;-76
2022/11/05 05:49:40;;;;;;;6.32;4.25;;;;;;;8.74;85.72;99135.78;4316430;33;34294;-78
2022/11/05 05:52:07;;;;;;;5.62;4.12;;;;;;;8.28;87.98;99139.75;4317398;33;33643;-75
2022/11/05 05:54:35;;;;;;;6.37;3.97;;;;;;;8.36;87.50;99153.66;4318337;33;34291;-74
2022/11/05 05:57:09;;;;;;;7.75;4.07;;;;;;;8.30;86.78;99156.53;4317751;33;34101;-73
2022/11/05 05:59:36;;;;;;;5.75;4.00;;;;;;;8.65;86.07;99167.03;4304752;33;34285;-75
2022/11/05 06:02:03;;;;;;;5.35;3.67;;;;;;;8.09;88.76;99166.22;4319114;33;33940;-76
2022/11/05 06:04:31;;;;;;;5.55;3.78;;;;;;;7.83;89.87;99173.91;4317757;33;35132;-73
2022/11/05 06:06:59;;;;;;;5.53;3.87;;;;;;;8.00;89.20;99187.44;4318226;33;34753;-76
2022/11/05 06:09:26;;;;;;;6.03;4.05;;;;;;;8.30;88.50;99191.69;4319130;33;34299;-74
2022/11/05 06:11:54;;;;;;;6.72;4.55;;;;;;;8.27;88.69;99200.25;4317879;33;34047;-74
2022/11/05 06:14:21;;;;;;;6.70;4.22;;;;;;;8.31;87.39;99196.81;4313939;33;164994;-79
2022/11/05 06:16:48;;;;;;;5.37;3.37;;;;;;;8.17;89.24;99198.22;4305042;33;32471;-77
2022/11/05 06:19:16;;;;;;;5.78;4.30;;;;;;;7.98;89.96;99203.06;4305365;33;33546;-73
2022/11/05 06:21:43;;;;;;;5.18;3.80;;;;;;;8.16;89.89;99204.69;4319128;33;33755;-83
2022/11/05 06:24:11;;;;;;;5.50;3.90;;;;;;;8.20;88.90;99220.16;4305670;33;34301;-78
2022/11/05 06:26:41;;;;;;;5.00;3.70;;;;;;;8.62;87.28;99233.28;4317901;33;33973;-76
2022/11/05 06:29:09;;;;;;;5.22;3.78;;;;;;;8.16;87.37;99220.91;4319003;33;33298;-81
2022/11/05 06:31:36;;;;;;;4.93;3.90;;;;;;;8.16;90.23;99221.75;4318795;33;34617;-79
2022/11/05 06:34:04;;;;;;;5.37;4.00;;;;;;;8.14;89.57;99226.56;4318614;33;34144;-81
2022/11/05 06:36:32;;;;;;;6.03;4.22;;;;;;;8.10;90.55;99222.72;4318665;33;33844;-77
2022/11/05 06:38:59;;;;;;;6.72;4.30;;;;;;;7.92;91.00;99225.63;4305511;33;33449;-74
2022/11/05 06:41:27;;;;;;;5.95;4.10;;;;;;;7.86;91.03;99227.44;4318456;33;34033;-82
2022/11/05 06:43:54;;;;;;;6.75;4.30;;;;;;;8.26;89.45;99236.47;4317841;33;34252;-80
2022/11/05 06:46:21;;;;;;;7.37;4.57;;;;;;;7.97;90.85;99237.38;4318994;33;34644;-74
2022/11/05 06:48:49;;;;;;;5.82;4.43;;;;;;;8.05;91.58;99235.31;4318496;33;33605;-80
2022/11/05 06:51:17;;;;;;;5.50;3.90;;;;;;;8.00;91.66;99242.25;4314763;33;34054;-74
2022/11/05 06:53:44;;;;;;;6.05;4.05;;;;;;;8.60;88.73;99248.91;4318736;33;34944;-73
2022/11/05 06:56:12;;;;;;;4.40;3.50;;;;;;;8.68;87.59;99255.78;4318526;33;34834;-75
2022/11/05 06:58:39;;;;;;;4.47;3.40;;;;;;;8.55;88.06;99256.97;4318568;33;34180;-79
2022/11/05 07:01:08;;;;;;;5.35;3.65;;;;;;;8.55;87.43;99256.13;4317036;33;34055;-80
2022/11/05 07:03:37;;;;;;;5.07;3.65;;;;;;;8.19;88.99;99258.25;4318315;33;34056;-81
2022/11/05 07:06:05;;;;;;;5.60;3.75;;;;;;;8.82;87.96;99257.06;4318391;33;33907;-73
2022/11/05 07:08:34;;;;;;;5.25;4.12;;;;;;;8.63;87.78;99263.81;4318382;33;33676;-72
2022/11/05 07:11:02;;;;;;;4.87;3.15;;;;;;;8.22;89.76;99263.16;4293110;33;34048;-74
2022/11/05 07:13:30;;;;;;;4.70;3.53;;;;;;;8.92;85.88;99274.50;4318589;33;34346;-74
2022/11/05 07:15:57;;;;;;;5.43;3.47;;;;;;;8.90;86.01;99266.66;4317840;33;35350;-86
2022/11/05 07:18:25;;;;;;;5.97;3.40;;;;;;;9.15;84.05;99276.16;4316679;33;33590;-77
2022/11/05 07:20:52;;;;;;;6.18;3.12;;;;;;;8.79;85.95;99278.38;4305271;33;34901;-76
2022/11/05 07:23:19;;;;;;;4.30;3.20;;;;;;;8.89;85.91;99275.00;4318457;33;33981;-75
2022/11/05 07:25:47;;;;;;;4.22;2.92;;;;;;;9.20;84.63;99279.78;4318101;33;34902;-82
2022/11/05 07:28:14;;;;;;;4.78;3.22;;;;;;;9.08;83.40;99275.56;4318346;33;33430;-77
2022/11/05 07:30:42;;;;;;;4.43;3.00;;;;;;;9.20;83.99;99278.94;4319941;33;33915;-75
2022/11/05 07:33:09;;;;;;;3.72;2.78;;;;;;;9.19;83.42;99272.72;4319834;33;35093;-78
2022/11/05 07:35:37;;;;;;;4.85;3.30;;;;;;;9.03;84.87;99273.59;4319369;33;34850;-76
2022/11/05 07:38:04;;;;;;;4.10;2.90;;;;;;;9.22;83.75;99271.38;4319813;33;34057;-76
2022/11/05 07:40:32;;;;;;;4.75;2.90;;;;;;;9.16;84.49;99281.34;4319843;33;34709;-73
2022/11/05 07:43:00;;;;;;;4.37;2.85;;;;;;;9.35;84.05;99268.31;4320177;33;34228;-80
2022/11/05 07:45:29;;;;;;;3.65;2.80;;;;;;;9.03;84.55;99279.00;4319777;33;33972;-79
2022/11/05 07:48:01;;;;;;;4.78;2.95;;;;;;;9.43;83.62;99281.38;4306529;33;33595;-85
2022/11/05 07:50:32;;;;;;;3.65;2.80;;;;;;;8.97;84.65;99278.13;4319081;33;33992;-78
2022/11/05 07:53:10;;;;;;;4.00;3.00;;;;;;;9.05;85.45;99282.28;4302575;33;34326;-79
2022/11/05 07:55:42;;;;;;;2.95;2.40;;;;;;;9.10;84.40;99284.25;4306529;33;34023;-76
2022/11/05 07:58:10;;;;;;;4.62;3.00;;;;;;;9.52;83.76;99280.94;4311555;33;34481;-81
2022/11/05 08:00:37;;;;;;;3.97;2.95;;;;;;;9.77;81.98;99275.00;4333746;33;35045;-80
2022/11/05 08:03:15;;;;;;;4.53;3.08;;;;;;;9.23;84.51;99281.97;4334397;33;34192;-78
2022/11/05 08:05:46;;;;;;;3.40;2.67;;;;;;;9.38;83.34;99275.13;4320193;33;33864;-75
2022/11/05 08:08:15;;;;;;;3.80;2.78;;;;;;;9.71;83.35;99276.03;4318365;33;34737;-75
2022/11/05 08:10:43;;;;;;;3.70;2.75;;;;;;;9.85;81.03;99272.66;4306040;33;34047;-75
2022/11/05 08:13:11;;;;;;;3.97;2.90;;;;;;;9.73;82.03;99263.03;4319359;33;35072;-81
2022/11/05 08:15:41;;;;;;;3.30;2.62;;;;;;;10.05;81.67;99268.50;4306622;33;34646;-73
2022/11/05 08:18:16;;;;;;;3.75;2.70;;;;;;;10.37;79.16;99260.41;4306420;33;33351;-71
2022/11/05 08:20:44;;;;;;;3.92;2.90;;;;;;;10.37;79.96;99257.69;4318901;33;34742;-74
2022/11/05 08:23:11;;;;;;;5.55;2.83;;;;;;;10.65;78.85;99258.44;4319070;33;35042;-81
2022/11/05 08:25:39;;;;;;;4.80;3.05;;;;;;;10.02;81.65;99248.16;4318379;33;34609;-72
2022/11/05 08:28:10;;;;;;;4.78;3.25;;;;;;;10.22;81.07;99249.41;4306020;33;33591;-70
2022/11/05 08:30:37;;;;;;;4.12;3.17;;;;;;;10.77;78.24;99248.19;4319203;33;34101;-78
2022/11/05 08:33:10;;;;;;;5.68;3.60;;;;;;;10.37;78.41;99249.56;4319254;33;34324;-71
2022/11/05 08:35:39;;;;;;;4.63;3.50;;;;;;;10.56;77.30;99251.84;4306164;33;33965;-83
2022/11/05 08:38:09;;;;;;;4.87;3.25;;;;;;;10.44;77.74;99257.47;4318813;33;33210;-87
2022/11/05 08:40:37;;;;;;;4.60;3.05;;;;;;;10.53;77.04;99271.38;4305263;33;34673;-89
2022/11/05 08:43:06;;;;;;;4.43;3.12;;;;;;;10.34;77.53;99258.19;4318466;33;34280;-88
2022/11/05 08:45:35;;;;;;;4.32;3.40;;;;;;;9.79;79.99;99251.19;4294044;33;34844;-71
2022/11/05 08:48:07;;;;;;;4.32;3.20;;;;;;;10.18;79.09;99262.66;4319239;33;33165;-88
2022/11/05 08:50:36;;;;;;;4.70;3.17;;;;;;;9.90;79.63;99269.16;4319000;33;33639;-70
2022/11/05 08:53:04;;;;;;;3.85;3.00;;;;;;;9.99;80.22;99275.75;4305327;33;35413;-86
2022/11/05 08:55:32;;;;;;;4.40;3.40;;;;;;;9.48;82.59;99277.94;4319111;33;34101;-81
2022/11/05 08:58:01;;;;;;;5.00;3.55;;;;;;;10.04;80.40;99277.69;4318978;33;33267;-77
2022/11/05 09:00:31;;;;;;;6.00;4.75;;;;;;;10.23;79.04;99280.84;4302936;33;34612;-78
2022/11/05 09:03:00;;;;;;;5.55;4.60;;;;;;;10.00;79.92;99293.66;4304467;33;34177;-78
2022/11/05 09:05:28;;;;;;;4.57;3.17;;;;;;;9.86;80.96;99301.38;4293938;33;34717;-78
2022/11/05 09:07:55;;;;;;;4.47;3.20;;;;;;;9.89;78.19;99288.38;4318832;33;33466;-78
2022/11/05 09:10:28;;;;;;;5.20;3.58;;;;;;;9.56;80.26;99288.31;4305962;33;33883;-81
2022/11/05 09:12:55;;;;;;;5.43;4.37;;;;;;;9.63;79.95;99288.97;4319074;33;34080;-73
2022/11/05 09:15:23;;;;;;;6.15;5.32;;;;;;;9.98;78.40;99295.81;4304898;33;33932;-75
2022/11/05 09:17:51;;;;;;;5.62;4.53;;;;;;;9.94;80.08;99304.72;4319095;33;33027;-77
2022/11/05 09:20:18;;;;;;;4.93;3.60;;;;;;;10.22;79.45;99312.56;4319063;33;33755;-78
2022/11/05 09:22:46;;;;;;;4.82;3.60;;;;;;;10.30;79.51;99307.78;4318666;33;34179;-77
2022/11/05 09:25:14;;;;;;;4.35;3.47;;;;;;;9.92;81.59;99313.09;4319411;33;34009;-74
2022/11/05 09:27:42;;;;;;;6.68;5.03;;;;;;;10.36;78.09;99304.84;4319339;33;33609;-75
2022/11/05 09:30:11;;;;;;;5.68;4.28;;;;;;;10.35;79.70;99311.38;4305303;33;34650;-75
2022/11/05 09:32:38;;;;;;;5.32;3.87;;;;;;;10.26;78.94;99312.88;4319277;33;34345;-76
2022/11/05 09:35:07;;;;;;;4.72;3.75;;;;;;;10.05;79.66;99309.16;4318896;33;34967;-79
2022/11/05 09:37:37;;;;;;;4.68;3.58;;;;;;;10.63;77.75;99315.66;4305916;33;34349;-76
2022/11/05 09:40:05;;;;;;;5.47;3.40;;;;;;;10.63;77.22;99315.66;4319073;33;33988;-78
2022/11/05 09:42:41;;;;;;;4.68;3.60;;;;;;;10.59;76.64;99300.97;4319062;33;34344;-75
2022/11/05 09:45:13;;;;;;;4.50;3.87;;;;;;;10.67;77.19;99302.41;4305958;33;34660;-79
2022/11/05 09:48:00;;;;;;;5.32;3.83;;;;;;;11.24;75.68;99300.84;4317907;33;34273;-77
2022/11/05 09:50:31;;;;;;;5.47;3.70;;;;;;;10.90;76.57;99300.37;4304255;33;33883;-76
2022/11/05 09:52:59;;;;;;;5.53;4.25;;;;;;;10.99;76.38;99301.50;4304529;33;35044;-76
2022/11/05 09:55:32;;;;;;;6.87;4.10;;;;;;;10.76;77.36;99305.44;4305430;33;33909;-81
2022/11/05 09:58:02;;;;;;;7.12;4.20;;;;;;;11.11;77.10;99310.28;4306021;33;34351;-73
2022/11/05 10:00:31;;;;;;;45.92;24.17;;;;;;;10.49;77.06;99300.09;4305843;33;34033;-72
2022/11/05 10:03:04;;;;;;;7.37;6.43;;;;;;;11.13;77.15;99299.97;4317850;33;35081;-82
2022/11/05 10:05:33;;;;;;;6.00;4.07;;;;;;;11.53;74.40;99305.84;4305860;33;34002;-71
2022/11/05 10:08:04;;;;;;;6.90;4.90;;;;;;;11.90;73.92;99306.56;4305960;33;33514;-81
2022/11/05 10:10:44;;;;;;;5.47;3.97;;;;;;;12.28;71.64;99300.87;4319240;33;34055;-85
2022/11/05 10:13:17;;;;;;;5.87;4.40;;;;;;;11.90;72.84;99289.44;4298657;33;33924;-75
2022/11/05 10:16:14;;;;;;;5.95;4.43;;;;;;;12.31;71.06;99294.91;4318035;33;33890;-75
2022/11/05 10:18:43;;;;;;;4.93;3.60;;;;;;;11.97;71.23;99287.25;4317630;33;34001;-74
2022/11/05 10:21:16;;;;;;;6.45;4.10;;;;;;;12.40;71.37;99290.56;4304246;33;34582;-80
2022/11/05 10:23:44;;;;;;;5.62;4.30;;;;;;;12.41;71.49;99288.66;4305340;33;35268;-78
2022/11/05 10:26:25;;;;;;;5.68;3.97;;;;;;;12.23;71.91;99295.47;4305623;33;33904;-82
2022/11/05 10:29:12;;;;;;;5.78;4.05;;;;;;;12.30;70.77;99290.56;4308357;33;34216;-88
2022/11/05 10:31:42;;;;;;;4.87;3.70;;;;;;;12.70;70.75;99278.84;4305786;33;34868;-85
2022/11/05 10:34:12;;;;;;;5.15;3.67;;;;;;;12.12;71.06;99283.75;4305347;33;34719;-74
2022/11/05 10:36:39;;;;;;;4.82;3.53;;;;;;;11.99;71.30;99279.66;4292428;33;34667;-76
2022/11/05 10:39:18;;;;;;;10.38;8.80;;;;;;;11.64;73.16;99283.06;4316013;33;33782;-77
2022/11/05 10:42:30;;;;;;;14.32;12.63;;;;;;;11.96;71.02;99282.09;4317574;33;34835;-74
2022/11/05 10:45:10;;;;;;;9.52;8.20;;;;;;;12.37;71.46;99282.94;4301408;33;34403;-75
2022/11/05 10:47:43;;;;;;;9.02;6.65;;;;;;;11.07;74.66;99290.16;4304629;33;34127;-78
2022/11/05 10:50:16;;;;;;;4.97;3.83;;;;;;;11.93;73.52;99286.16;4304606;33;33432;-78
2022/11/05 10:53:14;;;;;;;6.75;5.12;;;;;;;11.98;73.09;99288.06;4316165;33;33945;-76
2022/11/05 10:55:47;;;;;;;5.50;4.43;;;;;;;12.06;71.86;99290.25;4303261;33;34860;-72
2022/11/05 10:58:19;;;;;;;5.53;4.43;;;;;;;11.56;71.51;99297.19;4303976;33;33945;-74
2022/11/05 11:00:52;;;;;;;5.45;4.37;;;;;;;11.64;73.31;99304.78;4301640;33;33476;-76
2022/11/05 11:03:31;;;;;;;6.80;5.75;;;;;;;11.92;72.49;99310.88;4299845;33;34740;-76
2022/11/05 11:06:01;;;;;;;5.25;4.10;;;;;;;12.18;69.60;99309.03;4301716;33;33755;-76
2022/11/05 11:08:29;;;;;;;7.53;5.60;;;;;;;11.59;71.19;99300.16;4288767;33;33981;-72
2022/11/05 11:10:58;;;;;;;7.70;4.90;;;;;;;12.14;70.59;99299.78;4314461;33;33487;-76
2022/11/05 11:13:48;;;;;;;5.45;4.30;;;;;;;12.11;71.90;99301.94;4303963;33;34020;-74
2022/11/05 11:16:19;;;;;;;5.07;4.05;;;;;;;12.28;71.82;99298.16;4303826;33;34820;-73
2022/11/05 11:18:55;;;;;;;5.25;4.12;;;;;;;12.21;70.57;99298.44;4316394;33;34306;-76
2022/11/05 11:21:23;;;;;;;5.43;4.25;;;;;;;12.11;70.50;99296.50;4316550;33;33620;-73
2022/11/05 11:24:03;;;;;;;5.12;3.97;;;;;;;12.44;70.27;99298.97;4303673;33;34818;-73
2022/11/05 11:26:33;;;;;;;5.90;4.28;;;;;;;12.52;69.84;99290.28;4302925;33;35090;-74
2022/11/05 11:29:05;;;;;;;5.07;4.00;;;;;;;12.34;71.79;99296.28;4303444;33;34414;-74
2022/11/05 11:31:36;;;;;;;8.27;3.92;;;;;;;12.35;70.18;99297.91;4316822;33;33291;-72
2022/11/05 11:34:25;;;;;;;4.93;3.90;;;;;;;12.56;71.34;99298.72;4291064;33;32367;-74
2022/11/05 11:36:55;;;;;;;4.62;4.12;;;;;;;12.43;71.71;99292.72;4316084;33;34350;-73
2022/11/05 11:39:29;;;;;;;5.12;3.87;;;;;;;12.72;69.95;99292.16;4303110;33;33579;-70
2022/11/05 11:42:01;;;;;;;5.20;4.13;;;;;;;12.48;69.54;99292.75;4316379;33;34063;-78
2022/11/05 11:44:31;;;;;;;5.10;3.90;;;;;;;12.10;71.52;99291.34;4315441;33;33614;-76
2022/11/05 11:47:09;;;;;;;4.95;4.03;;;;;;;12.32;70.82;99294.63;4291222;33;34587;-76
2022/11/05 11:49:40;;;;;;;5.30;4.07;;;;;;;12.05;72.64;99285.91;4303091;33;34210;-78
2022/11/05 11:52:13;;;;;;;5.25;3.97;;;;;;;11.54;73.61;99289.28;4315875;33;33619;-78
2022/11/05 11:54:41;;;;;;;4.80;3.95;;;;;;;12.16;72.59;99284.84;4303235;33;33950;-75
2022/11/05 11:57:19;;;;;;;5.10;4.03;;;;;;;12.32;71.65;99291.09;4302879;33;33787;-76
2022/11/05 11:59:47;;;;;;;6.90;4.12;;;;;;;12.02;72.92;99298.13;4316378;33;34630;-77
2022/11/05 12:02:53;;;;;;;5.65;4.40;;;;;;;11.92;72.55;99303.53;4315061;33;34529;-78
2022/11/05 12:05:37;;;;;;;6.07;3.78;;;;;;;12.57;71.13;99308.50;4316211;33;34181;-77
2022/11/05 12:08:17;;;;;;;4.62;3.47;;;;;;;12.06;72.07;99301.94;4316291;33;34205;-77
2022/11/05 12:11:15;;;;;;;5.97;3.78;;;;;;;11.95;73.55;99299.50;4316141;33;34148;-75
2022/11/05 12:14:03;;;;;;;4.95;3.58;;;;;;;11.88;72.31;99306.00;4297854;33;33545;-74
2022/11/05 12:16:50;;;;;;;4.45;3.58;;;;;;;12.17;71.48;99305.50;4304309;33;34650;-76
2022/11/05 12:19:30;;;;;;;4.28;3.40;;;;;;;12.25;71.13;99306.87;4304411;33;34883;-76
2022/11/05 12:22:37;;;;;;;4.80;3.65;;;;;;;12.64;69.54;99314.50;4305627;33;34076;-78
2022/11/05 12:25:10;;;;;;;;;;;;;;;12.57;71.48;99324.84;4286543;33;34315;-74
2022/11/05 12:28:00;;;;;;;4.28;3.60;;;;;;;12.89;70.75;99324.53;4318536;33;34307;-77
2022/11/05 12:30:36;;;;;;;4.28;3.33;;;;;;;13.10;69.43;99341.66;4312524;33;34677;-78
2022/11/05 12:33:25;;;;;;;4.90;3.30;;;;;;;12.93;69.45;99331.88;4304622;33;33677;-75
2022/11/05 12:36:13;;;;;;;3.97;3.00;;;;;;;13.07;69.24;99329.41;4304352;33;33632;-78
2022/11/05 12:39:18;;;;;;;4.57;3.37;;;;;;;12.91;69.90;99330.53;4304206;33;35356;-78
2022/11/05 12:42:00;;;;;;;3.92;2.95;;;;;;;12.57;70.85;99324.84;4276008;33;33981;-74
2022/11/05 12:44:57;;;;;;;4.60;3.12;;;;;;;13.11;68.67;99333.22;4305221;33;33731;-77
2022/11/05 12:47:36;;;;;;;4.72;3.50;;;;;;;13.05;69.29;99338.97;4304857;33;33563;-73
2022/11/05 12:50:21;;;;;;;4.50;3.30;;;;;;;12.16;72.92;99335.69;4318355;33;33714;-75
2022/11/05 12:53:07;;;;;;;5.20;3.30;;;;;;;12.57;71.31;99339.28;4305098;33;34138;-74
2022/11/05 12:55:40;;;;;;;6.03;3.80;;;;;;;12.98;69.38;99347.41;4317400;33;33652;-75
2022/11/05 12:58:21;;;;;;;4.93;3.50;;;;;;;13.09;69.14;99350.94;4305995;33;33311;-75
2022/11/05 13:01:03;;;;;;;5.12;3.58;;;;;;;13.07;69.97;99356.66;4318272;33;33782;-75
2022/11/05 13:03:57;;;;;;;5.37;3.58;;;;;;;13.03;69.73;99354.75;4304723;33;34270;-75
2022/11/05 13:06:31;;;;;;;4.28;3.20;;;;;;;13.25;68.92;99357.16;4318080;33;35030;-73
2022/11/05 13:09:18;;;;;;;4.20;3.37;;;;;;;12.70;70.89;99356.97;4304970;33;34235;-77
2022/11/05 13:11:51;;;;;;;4.12;2.80;;;;;;;13.01;69.50;99346.84;4304375;33;34889;-74
2022/11/05 13:14:23;;;;;;;4.00;2.92;;;;;;;13.24;69.56;99358.25;4293030;33;34447;-77
2022/11/05 13:16:59;;;;;;;3.62;2.90;;;;;;;12.97;69.66;99364.84;4304433;33;33957;-74
2022/11/05 13:19:34;;;;;;;3.95;2.85;;;;;;;13.06;69.08;99362.38;4304992;33;33107;-74
2022/11/05 13:22:26;;;;;;;3.75;2.47;;;;;;;13.08;68.76;99366.44;4304832;33;33872;-74
2022/11/05 13:24:59;;;;;;;3.67;2.25;;;;;;;12.74;70.85;99377.09;4305132;33;34174;-74
2022/11/05 13:27:27;;;;;;;2.77;2.13;;;;;;;13.11;69.06;99376.00;4317773;33;33617;-75
2022/11/05 13:30:00;;;;;;;3.87;2.50;;;;;;;12.82;70.53;99386.63;4317153;33;33049;-73
2022/11/05 13:32:32;;;;;;;2.92;2.25;;;;;;;12.33;71.43;99382.50;4308400;33;33845;-75
2022/11/05 13:35:01;;;;;;;2.53;2.05;;;;;;;12.67;69.78;99382.00;4304785;33;35135;-73
2022/11/05 13:40:23;;;;;;;2.42;1.85;;;;;;;12.64;69.09;99375.19;4306301;33;33165;-72
2022/11/05 13:43:13;;;;;;;2.65;2.00;;;;;;;12.30;70.73;99377.59;4292626;33;33231;-75
2022/11/05 13:46:06;;;;;;;2.60;2.10;;;;;;;12.20;71.58;99381.13;4300850;33;34298;-76
2022/11/05 13:48:59;;;;;;;2.65;1.90;;;;;;;12.48;70.46;99384.41;4304821;33;34789;-75
2022/11/05 13:51:28;;;;;;;3.45;2.30;;;;;;;12.49;70.21;99381.44;4316063;33;33393;-76
2022/11/05 13:54:44;;;;;;;3.20;2.30;;;;;;;12.63;69.85;99379.00;4293035;33;33087;-73
2022/11/05 13:57:30;;;;;;;2.60;2.08;;;;;;;11.96;72.81;99379.97;4282168;33;33519;-78
2022/11/05 14:00:24;;;;;;;3.53;2.30;;;;;;;12.24;71.47;99378.66;4317124;33;33827;-75
2022/11/05 14:02:54;;;;;;;5.60;2.60;;;;;;;12.46;70.72;99386.59;4303930;33;34195;-76
2022/11/05 14:05:24;;;;;;;3.20;2.40;;;;;;;12.49;70.94;99372.47;4317968;33;33573;-74
2022/11/05 14:07:52;;;;;;;3.87;2.40;;;;;;;12.10;71.78;99379.19;4317710;33;33638;-75
2022/11/05 14:10:35;;;;;;;3.28;2.37;;;;;;;11.67;73.75;99383.91;4317808;33;34693;-72
2022/11/05 14:13:15;;;;;;;3.87;2.85;;;;;;;12.02;72.71;99379.69;4316900;33;33465;-73
2022/11/05 14:15:57;;;;;;;4.05;2.33;;;;;;;11.76;73.67;99375.25;4312034;33;33893;-74
2022/11/05 14:18:41;;;;;;;2.75;2.20;;;;;;;11.66;73.50;99386.88;4316688;33;34301;-73
2022/11/05 14:21:31;;;;;;;5.60;2.90;;;;;;;11.66;74.30;99389.59;4304178;33;34028;-76
2022/11/05 14:24:18;;;;;;;5.45;3.40;;;;;;;11.67;73.75;99388.53;4317452;33;33989;-75
2022/11/05 14:27:00;;;;;;;6.05;3.60;;;;;;;12.23;72.24;99390.66;4304828;33;34821;-77
2022/11/05 14:29:40;;;;;;;5.40;3.55;;;;;;;11.93;74.46;99391.37;4318015;33;35064;-73
2022/11/05 14:32:20;;;;;;;5.85;3.60;;;;;;;12.46;71.94;99386.59;4305381;33;33726;-73
2022/11/05 14:34:53;;;;;;;7.70;5.95;;;;;;;12.04;73.75;99398.47;4317203;33;33377;-75
2022/11/05 14:37:20;;;;;;;7.43;4.70;;;;;;;11.97;72.81;99396.00;4304889;33;33817;-73
2022/11/05 14:39:48;;;;;;;5.45;3.42;;;;;;;12.46;71.45;99392.88;4317103;33;34091;-73
2022/11/05 14:42:27;;;;;;;5.18;3.70;;;;;;;12.76;70.01;99404.84;4303821;33;33942;-73
2022/11/05 14:45:33;;;;;;;5.35;3.78;;;;;;;12.06;71.80;99404.47;4292607;33;34352;-74
2022/11/05 14:48:03;;;;;;;4.40;3.37;;;;;;;12.40;71.10;99409.47;4318633;33;34145;-72
2022/11/05 14:50:34;;;;;;;6.75;4.00;;;;;;;12.28;71.41;99407.78;4304186;33;34290;-72
2022/11/05 14:53:27;;;;;;;5.10;3.55;;;;;;;12.39;71.04;99415.97;4304893;33;35120;-73
2022/11/05 14:56:00;;;;;;;4.15;3.10;;;;;;;12.42;71.13;99416.25;4301851;33;33879;-75
2022/11/05 14:58:31;;;;;;;4.43;3.40;;;;;;;12.34;71.01;99422.22;4318297;33;33649;-72
2022/11/05 15:01:01;;;;;;;4.55;3.10;;;;;;;11.96;71.61;99432.41;4318487;33;34238;-72
2022/11/05 15:03:30;;;;;;;3.75;2.85;;;;;;;12.23;69.72;99426.81;4304209;33;33984;-72
2022/11/05 15:06:34;;;;;;;4.05;2.70;;;;;;;12.15;70.39;99430.06;4317148;33;33480;-74
2022/11/05 15:09:26;;;;;;;5.25;3.25;;;;;;;11.77;72.89;99433.94;4318384;33;33954;-75
2022/11/05 15:11:54;;;;;;;5.93;3.30;;;;;;;11.99;71.20;99436.53;4304802;33;35176;-71
2022/11/05 15:14:50;;;;;;;5.93;3.83;;;;;;;11.34;72.90;99435.84;4304794;33;33376;-75
2022/11/05 15:17:28;;;;;;;6.45;4.15;;;;;;;11.87;71.54;99437.53;4304310;33;33481;-76
2022/11/05 15:20:08;;;;;;;7.10;3.22;;;;;;;11.73;72.14;99440.97;4305148;33;34160;-74
2022/11/05 15:22:40;;;;;;;5.78;3.17;;;;;;;11.65;72.22;99450.47;4304165;33;34097;-76
2022/11/05 15:25:43;;;;;;;6.03;3.47;;;;;;;11.86;71.19;99441.34;4304835;33;34415;-73
2022/11/05 15:28:23;;;;;;;7.00;4.53;;;;;;;11.54;72.39;99449.59;4305547;33;33259;-81
2022/11/05 15:31:12;;;;;;;4.90;3.10;;;;;;;11.40;73.14;99453.81;4304907;33;34636;-73
2022/11/05 15:33:42;;;;;;;4.57;3.47;;;;;;;11.52;72.37;99450.94;4317561;33;34178;-82
2022/11/05 15:36:24;;;;;;;3.95;2.72;;;;;;;11.31;73.11;99455.41;4303578;33;33600;-83
2022/11/05 15:38:53;;;;;;;4.43;2.78;;;;;;;11.26;73.95;99454.28;4317788;33;33563;-83
2022/11/05 15:41:40;;;;;;;4.18;2.95;;;;;;;11.68;72.53;99452.63;4297145;33;33902;-81
2022/11/05 15:44:23;;;;;;;4.45;2.95;;;;;;;11.44;73.75;99450.31;4317588;33;35059;-74
2022/11/05 15:47:12;;;;;;;4.07;2.70;;;;;;;11.39;73.22;99463.06;4317171;33;34285;-75
2022/11/05 15:50:00;;;;;;;4.32;3.00;;;;;;;11.18;74.37;99465.63;4318162;33;34470;-77
2022/11/05 15:52:40;;;;;;;3.65;2.67;;;;;;;11.60;72.21;99475.72;4306148;33;33945;-74
2022/11/05 15:55:11;;;;;;;4.68;2.95;;;;;;;11.60;72.70;99474.91;4306499;33;35130;-75
2022/11/05 15:57:48;;;;;;;4.80;3.00;;;;;;;11.32;73.58;99470.59;4319758;33;34085;-76
2022/11/05 16:00:20;;;;;;;4.85;3.20;;;;;;;11.88;71.64;99465.56;4319283;33;34336;-73
2022/11/05 16:02:54;;;;;;;5.85;3.20;;;;;;;11.85;71.17;99475.03;4319403;33;34876;-75
2022/11/05 16:05:27;;;;;;;6.30;3.62;;;;;;;10.98;74.71;99479.03;4294281;33;35109;-72
2022/11/05 16:07:58;;;;;;;5.55;3.72;;;;;;;10.91;75.83;99473.81;4294386;33;34647;-71
2022/11/05 16:10:32;;;;;;;4.90;3.30;;;;;;;11.78;72.62;99481.78;4318667;33;34179;-74
2022/11/05 16:13:38;;;;;;;5.03;3.28;;;;;;;10.97;75.62;99480.94;4306189;33;34108;-73
2022/11/05 16:16:31;;;;;;;4.60;3.00;;;;;;;11.37;75.08;99490.50;4304529;33;33748;-73
2022/11/05 16:18:59;;;;;;;4.72;3.33;;;;;;;11.22;74.81;99496.63;4288226;33;33220;-78
2022/11/05 16:21:27;;;;;;;4.62;3.17;;;;;;;11.24;75.81;99490.94;4300844;33;33469;-77
2022/11/05 16:23:57;;;;;;;5.45;3.90;;;;;;;11.08;76.95;99500.84;4302933;33;34617;-81
2022/11/05 16:26:32;;;;;;;5.03;3.47;;;;;;;11.43;75.58;99503.03;4304462;33;34846;-76
2022/11/05 16:29:34;;;;;;;5.82;4.03;;;;;;;11.20;77.01;99509.62;4297154;33;33996;-76
2022/11/05 16:32:05;;;;;;;6.40;4.32;;;;;;;10.70;78.72;99509.97;4294396;33;34336;-82
2022/11/05 16:34:39;;;;;;;5.57;3.90;;;;;;;11.13;78.09;99509.03;4290416;33;33671;-74
2022/11/05 16:37:14;;;;;;;5.55;4.15;;;;;;;11.25;77.78;99512.41;4290298;33;35162;-74
2022/11/05 16:39:42;;;;;;;5.95;3.80;;;;;;;11.31;77.01;99510.53;4290261;33;34240;-83
2022/11/05 16:42:22;;;;;;;5.97;4.03;;;;;;;11.80;75.08;99518.50;4310315;33;34269;-71
2022/11/05 16:44:51;;;;;;;5.65;3.58;;;;;;;11.11;77.39;99521.25;4317339;33;33816;-84
2022/11/05 16:47:19;;;;;;;7.10;4.78;;;;;;;10.70;80.58;99526.25;4316202;33;33752;-72
2022/11/05 16:49:47;;;;;;;5.80;3.92;;;;;;;10.50;82.04;99526.88;4317792;33;34022;-74
2022/11/05 16:52:15;;;;;;;6.47;4.05;;;;;;;10.84;80.25;99530.19;4303592;33;33372;-74